sensor_id;sensor_type;location;lat;lon;timestamp;temperature;humidity
5280;DHT22;2663;53.588;10.010;2024-02-21T00:00:11;10.00;99.90
5280;DHT22;2663;53.588;10.010;2024-02-21T00:02:38;10.70;99.90
5280;DHT22;2663;53.588;10.010;2024-02-21T00:05:05;10.10;99.90
5280;DHT22;2663;53.588;10.010;2024-02-21T00:07:32;10.00;99.90
5280;DHT22;2663;53.588;10.010;2024-02-21T00:09:59;10.00;99.90
5280;DHT22;2663;53.588;10.010;2024-02-21T00:12:25;10.00;99.90
5280;DHT22;2663;53.588;10.010;2024-02-21T00:14:52;10.00;99.90
5280;DHT22;2663;53.588;10.010;2024-02-21T00:17:19;10.00;99.90
5280;DHT22;2663;53.588;10.010;2024-02-21T00:19:46;10.00;99.90
5280;DHT22;2663;53.588;10.010;2024-02-21T00:22:12;10.00;99.90
5280;DHT22;2663;53.588;10.010;2024-02-21T00:24:39;10.00;99.90
5280;DHT22;2663;53.588;10.010;2024-02-21T00:27:06;9.90;99.90
5280;DHT22;2663;53.588;10.010;2024-02-21T00:29:33;9.90;99.90
5280;DHT22;2663;53.588;10.010;2024-02-21T00:32:00;9.90;99.90
5280;DHT22;2663;53.588;10.010;2024-02-21T00:34:27;9.90;99.90
5280;DHT22;2663;53.588;10.010;2024-02-21T00:36:54;9.90;99.90
5280;DHT22;2663;53.588;10.010;2024-02-21T00:39:21;10.00;99.90
5280;DHT22;2663;53.588;10.010;2024-02-21T00:41:48;10.00;99.90
5280;DHT22;2663;53.588;10.010;2024-02-21T00:44:14;10.00;99.90
5280;DHT22;2663;53.588;10.010;2024-02-21T00:46:41;10.00;99.90
5280;DHT22;2663;53.588;10.010;2024-02-21T00:49:08;10.00;99.90
5280;DHT22;2663;53.588;10.010;2024-02-21T00:51:35;9.90;99.90
5280;DHT22;2663;53.588;10.010;2024-02-21T00:54:02;9.80;99.90
5280;DHT22;2663;53.588;10.010;2024-02-21T00:56:28;9.90;99.90
5280;DHT22;2663;53.588;10.010;2024-02-21T00:58:56;9.90;99.90
5280;DHT22;2663;53.588;10.010;2024-02-21T01:01:24;9.90;99.90
5280;DHT22;2663;53.588;10.010;2024-02-21T01:03:51;9.90;99.90
5280;DHT22;2663;53.588;10.010;2024-02-21T01:06:21;9.90;99.90
5280;DHT22;2663;53.588;10.010;2024-02-21T01:08:48;9.90;99.90
5280;DHT22;2663;53.588;10.010;2024-02-21T01:11:16;9.90;99.90
5280;DHT22;2663;53.588;10.010;2024-02-21T01:13:44;9.90;99.90
5280;DHT22;2663;53.588;10.010;2024-02-21T01:16:11;9.90;99.90
5280;DHT22;2663;53.588;10.010;2024-02-21T01:18:38;9.90;99.90
5280;DHT22;2663;53.588;10.010;2024-02-21T01:21:07;9.90;99.90
5280;DHT22;2663;53.588;10.010;2024-02-21T01:23:34;9.90;99.90
5280;DHT22;2663;53.588;10.010;2024-02-21T01:26:03;9.90;99.90
5280;DHT22;2663;53.588;10.010;2024-02-21T01:28:30;10.00;99.90
5280;DHT22;2663;53.588;10.010;2024-02-21T01:30:57;9.90;99.90
5280;DHT22;2663;53.588;10.010;2024-02-21T01:33:24;10.00;99.90
5280;DHT22;2663;53.588;10.010;2024-02-21T01:35:50;10.00;99.90
5280;DHT22;2663;53.588;10.010;2024-02-21T01:38:17;10.00;99.90
5280;DHT22;2663;53.588;10.010;2024-02-21T01:40:44;9.90;99.90
5280;DHT22;2663;53.588;10.010;2024-02-21T01:43:19;9.90;99.90
5280;DHT22;2663;53.588;10.010;2024-02-21T01:45:48;9.90;99.90
5280;DHT22;2663;53.588;10.010;2024-02-21T01:48:21;9.90;99.90
5280;DHT22;2663;53.588;10.010;2024-02-21T01:50:49;9.80;99.90
5280;DHT22;2663;53.588;10.010;2024-02-21T01:53:22;9.80;99.90
5280;DHT22;2663;53.588;10.010;2024-02-21T01:55:49;9.80;99.90
5280;DHT22;2663;53.588;10.010;2024-02-21T01:58:16;9.70;99.90
5280;DHT22;2663;53.588;10.010;2024-02-21T02:00:46;9.70;99.90
5280;DHT22;2663;53.588;10.010;2024-02-21T02:03:13;9.80;99.90
5280;DHT22;2663;53.588;10.010;2024-02-21T02:05:47;9.70;99.90
5280;DHT22;2663;53.588;10.010;2024-02-21T02:08:18;9.80;99.90
5280;DHT22;2663;53.588;10.010;2024-02-21T02:10:46;9.30;99.90
5280;DHT22;2663;53.588;10.010;2024-02-21T02:13:13;9.60;99.90
5280;DHT22;2663;53.588;10.010;2024-02-21T02:15:47;9.70;99.90
5280;DHT22;2663;53.588;10.010;2024-02-21T02:18:16;9.60;99.90
5280;DHT22;2663;53.588;10.010;2024-02-21T02:20:46;9.60;99.90
5280;DHT22;2663;53.588;10.010;2024-02-21T02:23:29;9.60;99.90
5280;DHT22;2663;53.588;10.010;2024-02-21T02:25:56;9.70;99.90
5280;DHT22;2663;53.588;10.010;2024-02-21T02:28:23;9.60;99.90
5280;DHT22;2663;53.588;10.010;2024-02-21T02:30:50;9.60;99.90
5280;DHT22;2663;53.588;10.010;2024-02-21T02:33:17;9.50;99.90
5280;DHT22;2663;53.588;10.010;2024-02-21T02:35:44;9.50;99.90
5280;DHT22;2663;53.588;10.010;2024-02-21T02:38:12;9.50;99.90
5280;DHT22;2663;53.588;10.010;2024-02-21T02:40:40;7.90;99.90
5280;DHT22;2663;53.588;10.010;2024-02-21T02:43:07;9.60;99.90
5280;DHT22;2663;53.588;10.010;2024-02-21T02:45:34;9.60;99.90
5280;DHT22;2663;53.588;10.010;2024-02-21T02:48:00;9.60;99.90
5280;DHT22;2663;53.588;10.010;2024-02-21T02:50:27;9.00;99.90
5280;DHT22;2663;53.588;10.010;2024-02-21T02:52:55;9.70;99.90
5280;DHT22;2663;53.588;10.010;2024-02-21T02:55:22;9.80;99.90
5280;DHT22;2663;53.588;10.010;2024-02-21T02:57:49;10.90;99.90
5280;DHT22;2663;53.588;10.010;2024-02-21T03:00:16;9.10;99.90
5280;DHT22;2663;53.588;10.010;2024-02-21T03:02:44;9.90;99.90
5280;DHT22;2663;53.588;10.010;2024-02-21T03:05:14;9.80;99.90
5280;DHT22;2663;53.588;10.010;2024-02-21T03:07:43;9.90;99.90
5280;DHT22;2663;53.588;10.010;2024-02-21T03:10:11;9.90;99.90
5280;DHT22;2663;53.588;10.010;2024-02-21T03:12:38;9.80;99.90
5280;DHT22;2663;53.588;10.010;2024-02-21T03:15:06;9.90;99.90
5280;DHT22;2663;53.588;10.010;2024-02-21T03:17:32;9.90;99.90
5280;DHT22;2663;53.588;10.010;2024-02-21T03:20:03;9.80;99.90
5280;DHT22;2663;53.588;10.010;2024-02-21T03:22:36;9.90;99.90
5280;DHT22;2663;53.588;10.010;2024-02-21T03:25:04;9.90;99.90
5280;DHT22;2663;53.588;10.010;2024-02-21T03:27:32;9.90;99.90
5280;DHT22;2663;53.588;10.010;2024-02-21T03:29:59;9.90;99.90
5280;DHT22;2663;53.588;10.010;2024-02-21T03:32:25;10.00;99.90
5280;DHT22;2663;53.588;10.010;2024-02-21T03:34:52;9.90;99.90
5280;DHT22;2663;53.588;10.010;2024-02-21T03:37:19;10.00;99.90
5280;DHT22;2663;53.588;10.010;2024-02-21T03:39:46;10.00;99.90
5280;DHT22;2663;53.588;10.010;2024-02-21T03:42:13;10.00;99.90
5280;DHT22;2663;53.588;10.010;2024-02-21T03:44:40;10.00;99.90
5280;DHT22;2663;53.588;10.010;2024-02-21T03:47:06;10.00;99.90
5280;DHT22;2663;53.588;10.010;2024-02-21T03:49:33;10.00;99.90
5280;DHT22;2663;53.588;10.010;2024-02-21T03:52:00;10.00;99.90
5280;DHT22;2663;53.588;10.010;2024-02-21T03:54:27;10.00;99.90
5280;DHT22;2663;53.588;10.010;2024-02-21T03:56:54;10.20;99.90
5280;DHT22;2663;53.588;10.010;2024-02-21T03:59:22;10.00;99.90
5280;DHT22;2663;53.588;10.010;2024-02-21T04:01:53;10.00;99.90
5280;DHT22;2663;53.588;10.010;2024-02-21T04:04:20;10.00;99.90
5280;DHT22;2663;53.588;10.010;2024-02-21T04:06:50;10.40;99.90
5280;DHT22;2663;53.588;10.010;2024-02-21T04:09:18;9.90;99.90
5280;DHT22;2663;53.588;10.010;2024-02-21T04:11:44;9.90;99.90
5280;DHT22;2663;53.588;10.010;2024-02-21T04:14:11;9.90;99.90
5280;DHT22;2663;53.588;10.010;2024-02-21T04:16:38;9.90;99.90
5280;DHT22;2663;53.588;10.010;2024-02-21T04:19:06;9.80;99.90
5280;DHT22;2663;53.588;10.010;2024-02-21T04:21:34;9.90;99.90
5280;DHT22;2663;53.588;10.010;2024-02-21T04:24:01;9.20;99.90
5280;DHT22;2663;53.588;10.010;2024-02-21T04:26:28;9.90;99.90
5280;DHT22;2663;53.588;10.010;2024-02-21T04:28:55;9.90;99.90
5280;DHT22;2663;53.588;10.010;2024-02-21T04:31:22;8.60;99.90
5280;DHT22;2663;53.588;10.010;2024-02-21T04:33:49;9.90;99.90
5280;DHT22;2663;53.588;10.010;2024-02-21T04:36:16;9.80;99.90
5280;DHT22;2663;53.588;10.010;2024-02-21T04:38:42;9.70;99.90
5280;DHT22;2663;53.588;10.010;2024-02-21T04:41:09;9.70;99.90
5280;DHT22;2663;53.588;10.010;2024-02-21T04:43:36;9.70;99.90
5280;DHT22;2663;53.588;10.010;2024-02-21T04:46:03;9.70;99.90
5280;DHT22;2663;53.588;10.010;2024-02-21T04:48:30;9.80;99.90
5280;DHT22;2663;53.588;10.010;2024-02-21T04:50:57;9.80;99.90
5280;DHT22;2663;53.588;10.010;2024-02-21T04:53:24;9.70;99.90
5280;DHT22;2663;53.588;10.010;2024-02-21T04:55:50;9.80;99.90
5280;DHT22;2663;53.588;10.010;2024-02-21T04:58:17;9.70;99.90
5280;DHT22;2663;53.588;10.010;2024-02-21T05:00:44;9.70;99.90
5280;DHT22;2663;53.588;10.010;2024-02-21T05:03:10;9.70;99.90
5280;DHT22;2663;53.588;10.010;2024-02-21T05:05:37;9.60;99.90
5280;DHT22;2663;53.588;10.010;2024-02-21T05:08:04;9.80;99.90
5280;DHT22;2663;53.588;10.010;2024-02-21T05:10:32;9.60;99.90
5280;DHT22;2663;53.588;10.010;2024-02-21T05:12:58;9.60;99.90
5280;DHT22;2663;53.588;10.010;2024-02-21T05:15:25;9.60;99.90
5280;DHT22;2663;53.588;10.010;2024-02-21T05:17:52;9.60;99.90
5280;DHT22;2663;53.588;10.010;2024-02-21T05:20:19;9.60;99.90
5280;DHT22;2663;53.588;10.010;2024-02-21T05:22:46;9.60;99.90
5280;DHT22;2663;53.588;10.010;2024-02-21T05:25:13;9.60;99.90
5280;DHT22;2663;53.588;10.010;2024-02-21T05:27:40;9.60;99.90
5280;DHT22;2663;53.588;10.010;2024-02-21T05:30:07;9.50;99.90
5280;DHT22;2663;53.588;10.010;2024-02-21T05:32:34;9.60;99.90
5280;DHT22;2663;53.588;10.010;2024-02-21T05:35:01;9.60;99.90
5280;DHT22;2663;53.588;10.010;2024-02-21T05:37:27;10.70;99.90
5280;DHT22;2663;53.588;10.010;2024-02-21T05:39:54;9.60;99.90
5280;DHT22;2663;53.588;10.010;2024-02-21T05:42:21;9.50;99.90
5280;DHT22;2663;53.588;10.010;2024-02-21T05:44:48;9.50;99.90
5280;DHT22;2663;53.588;10.010;2024-02-21T05:47:14;9.60;99.90
5280;DHT22;2663;53.588;10.010;2024-02-21T05:49:42;9.60;99.90
5280;DHT22;2663;53.588;10.010;2024-02-21T05:52:09;10.80;99.90
5280;DHT22;2663;53.588;10.010;2024-02-21T05:54:38;9.50;99.90
5280;DHT22;2663;53.588;10.010;2024-02-21T05:57:07;9.50;99.90
5280;DHT22;2663;53.588;10.010;2024-02-21T05:59:34;9.60;99.90
5280;DHT22;2663;53.588;10.010;2024-02-21T06:02:02;9.50;99.90
5280;DHT22;2663;53.588;10.010;2024-02-21T06:04:31;9.60;99.90
5280;DHT22;2663;53.588;10.010;2024-02-21T06:06:58;9.60;99.90
5280;DHT22;2663;53.588;10.010;2024-02-21T06:09:24;9.50;99.90
5280;DHT22;2663;53.588;10.010;2024-02-21T06:11:51;9.50;99.90
5280;DHT22;2663;53.588;10.010;2024-02-21T06:14:19;9.50;99.90
5280;DHT22;2663;53.588;10.010;2024-02-21T06:16:45;9.50;99.90
5280;DHT22;2663;53.588;10.010;2024-02-21T06:19:12;9.50;99.90
5280;DHT22;2663;53.588;10.010;2024-02-21T06:21:39;9.50;99.90
5280;DHT22;2663;53.588;10.010;2024-02-21T06:24:06;9.50;99.90
5280;DHT22;2663;53.588;10.010;2024-02-21T06:26:33;9.60;99.90
5280;DHT22;2663;53.588;10.010;2024-02-21T06:28:59;9.90;99.90
5280;DHT22;2663;53.588;10.010;2024-02-21T06:31:27;10.00;99.90
5280;DHT22;2663;53.588;10.010;2024-02-21T06:33:54;10.00;99.90
5280;DHT22;2663;53.588;10.010;2024-02-21T06:36:21;10.20;99.90
5280;DHT22;2663;53.588;10.010;2024-02-21T06:38:48;10.30;99.90
5280;DHT22;2663;53.588;10.010;2024-02-21T06:41:19;10.40;99.90
5280;DHT22;2663;53.588;10.010;2024-02-21T06:43:46;10.30;99.90
5280;DHT22;2663;53.588;10.010;2024-02-21T06:46:27;9.10;99.90
5280;DHT22;2663;53.588;10.010;2024-02-21T06:48:56;10.40;99.90
5280;DHT22;2663;53.588;10.010;2024-02-21T06:51:24;10.30;99.90
5280;DHT22;2663;53.588;10.010;2024-02-21T06:53:52;10.40;99.90
5280;DHT22;2663;53.588;10.010;2024-02-21T06:56:19;10.10;99.90
5280;DHT22;2663;53.588;10.010;2024-02-21T06:58:46;9.80;99.90
5280;DHT22;2663;53.588;10.010;2024-02-21T07:01:12;9.70;99.90
5280;DHT22;2663;53.588;10.010;2024-02-21T07:03:39;9.70;99.90
5280;DHT22;2663;53.588;10.010;2024-02-21T07:06:06;9.80;99.90
5280;DHT22;2663;53.588;10.010;2024-02-21T07:08:33;9.80;99.90
5280;DHT22;2663;53.588;10.010;2024-02-21T07:11:00;9.70;99.90
5280;DHT22;2663;53.588;10.010;2024-02-21T07:13:27;9.70;99.90
5280;DHT22;2663;53.588;10.010;2024-02-21T07:15:53;9.70;99.90
5280;DHT22;2663;53.588;10.010;2024-02-21T07:18:20;8.50;99.90
5280;DHT22;2663;53.588;10.010;2024-02-21T07:20:47;9.70;99.90
5280;DHT22;2663;53.588;10.010;2024-02-21T07:23:14;9.70;99.90
5280;DHT22;2663;53.588;10.010;2024-02-21T07:25:41;9.70;99.90
5280;DHT22;2663;53.588;10.010;2024-02-21T07:28:08;9.70;99.90
5280;DHT22;2663;53.588;10.010;2024-02-21T07:30:34;9.70;99.90
5280;DHT22;2663;53.588;10.010;2024-02-21T07:33:02;9.70;99.90
5280;DHT22;2663;53.588;10.010;2024-02-21T07:35:29;9.70;99.90
5280;DHT22;2663;53.588;10.010;2024-02-21T07:37:56;9.60;99.90
5280;DHT22;2663;53.588;10.010;2024-02-21T07:40:23;9.70;99.90
5280;DHT22;2663;53.588;10.010;2024-02-21T07:42:50;9.70;99.90
5280;DHT22;2663;53.588;10.010;2024-02-21T07:45:17;9.70;99.90
5280;DHT22;2663;53.588;10.010;2024-02-21T07:47:50;9.80;99.90
5280;DHT22;2663;53.588;10.010;2024-02-21T07:50:17;9.80;99.90
5280;DHT22;2663;53.588;10.010;2024-02-21T07:52:44;9.70;99.90
5280;DHT22;2663;53.588;10.010;2024-02-21T07:55:11;9.70;99.90
5280;DHT22;2663;53.588;10.010;2024-02-21T07:57:38;9.80;99.90
5280;DHT22;2663;53.588;10.010;2024-02-21T08:00:05;9.80;99.90
5280;DHT22;2663;53.588;10.010;2024-02-21T08:02:32;9.70;99.90
5280;DHT22;2663;53.588;10.010;2024-02-21T08:04:59;9.70;99.90
5280;DHT22;2663;53.588;10.010;2024-02-21T08:07:25;9.70;99.90
5280;DHT22;2663;53.588;10.010;2024-02-21T08:09:56;9.70;99.90
5280;DHT22;2663;53.588;10.010;2024-02-21T08:12:23;9.70;99.90
5280;DHT22;2663;53.588;10.010;2024-02-21T08:14:49;9.70;99.90
5280;DHT22;2663;53.588;10.010;2024-02-21T08:17:16;9.70;99.90
5280;DHT22;2663;53.588;10.010;2024-02-21T08:19:43;9.70;99.90
5280;DHT22;2663;53.588;10.010;2024-02-21T08:22:09;9.70;99.90
5280;DHT22;2663;53.588;10.010;2024-02-21T08:24:36;9.70;99.90
5280;DHT22;2663;53.588;10.010;2024-02-21T08:27:04;9.60;99.90
5280;DHT22;2663;53.588;10.010;2024-02-21T08:29:30;9.60;99.90
5280;DHT22;2663;53.588;10.010;2024-02-21T08:31:57;9.60;99.90
5280;DHT22;2663;53.588;10.010;2024-02-21T08:34:24;9.60;99.90
5280;DHT22;2663;53.588;10.010;2024-02-21T08:36:51;9.70;99.90
5280;DHT22;2663;53.588;10.010;2024-02-21T08:39:18;9.60;99.90
5280;DHT22;2663;53.588;10.010;2024-02-21T08:41:45;9.70;99.90
5280;DHT22;2663;53.588;10.010;2024-02-21T08:44:23;9.80;99.90
5280;DHT22;2663;53.588;10.010;2024-02-21T08:46:54;9.80;99.90
5280;DHT22;2663;53.588;10.010;2024-02-21T08:49:21;9.80;99.90
5280;DHT22;2663;53.588;10.010;2024-02-21T08:51:48;9.80;99.90
5280;DHT22;2663;53.588;10.010;2024-02-21T08:54:15;9.80;99.90
5280;DHT22;2663;53.588;10.010;2024-02-21T08:56:42;9.90;99.90
5280;DHT22;2663;53.588;10.010;2024-02-21T08:59:09;9.60;99.90
5280;DHT22;2663;53.588;10.010;2024-02-21T09:01:36;9.80;99.90
5280;DHT22;2663;53.588;10.010;2024-02-21T09:04:03;9.90;99.90
5280;DHT22;2663;53.588;10.010;2024-02-21T09:06:30;9.80;99.90
5280;DHT22;2663;53.588;10.010;2024-02-21T09:08:59;11.00;99.90
5280;DHT22;2663;53.588;10.010;2024-02-21T09:11:26;9.80;99.90
5280;DHT22;2663;53.588;10.010;2024-02-21T09:13:54;9.80;99.90
5280;DHT22;2663;53.588;10.010;2024-02-21T09:16:21;9.90;99.90
5280;DHT22;2663;53.588;10.010;2024-02-21T09:18:49;9.80;99.90
5280;DHT22;2663;53.588;10.010;2024-02-21T09:21:16;9.80;99.90
5280;DHT22;2663;53.588;10.010;2024-02-21T09:23:43;9.90;99.90
5280;DHT22;2663;53.588;10.010;2024-02-21T09:26:10;9.80;99.90
5280;DHT22;2663;53.588;10.010;2024-02-21T09:28:40;9.80;99.90
5280;DHT22;2663;53.588;10.010;2024-02-21T09:31:07;9.90;99.90
5280;DHT22;2663;53.588;10.010;2024-02-21T09:33:34;9.80;99.90
5280;DHT22;2663;53.588;10.010;2024-02-21T09:36:01;9.80;99.90
5280;DHT22;2663;53.588;10.010;2024-02-21T09:38:28;9.90;99.90
5280;DHT22;2663;53.588;10.010;2024-02-21T09:41:00;9.80;99.90
5280;DHT22;2663;53.588;10.010;2024-02-21T09:43:29;9.80;99.90
5280;DHT22;2663;53.588;10.010;2024-02-21T09:45:58;9.80;99.90
5280;DHT22;2663;53.588;10.010;2024-02-21T09:50:53;10.00;99.90
5280;DHT22;2663;53.588;10.010;2024-02-21T09:53:24;10.00;99.90
5280;DHT22;2663;53.588;10.010;2024-02-21T09:55:51;10.00;99.90
5280;DHT22;2663;53.588;10.010;2024-02-21T09:58:18;10.10;99.90
5280;DHT22;2663;53.588;10.010;2024-02-21T10:00:45;10.00;99.90
5280;DHT22;2663;53.588;10.010;2024-02-21T10:03:12;10.00;99.90
5280;DHT22;2663;53.588;10.010;2024-02-21T10:05:47;9.90;99.90
5280;DHT22;2663;53.588;10.010;2024-02-21T10:08:15;9.90;99.90
5280;DHT22;2663;53.588;10.010;2024-02-21T10:10:45;10.00;99.90
5280;DHT22;2663;53.588;10.010;2024-02-21T10:13:38;9.90;99.90
5280;DHT22;2663;53.588;10.010;2024-02-21T10:16:07;9.90;99.90
5280;DHT22;2663;53.588;10.010;2024-02-21T10:18:35;9.90;99.90
5280;DHT22;2663;53.588;10.010;2024-02-21T10:21:05;9.90;99.90
5280;DHT22;2663;53.588;10.010;2024-02-21T10:23:46;9.10;99.90
5280;DHT22;2663;53.588;10.010;2024-02-21T10:26:14;10.00;99.90
5280;DHT22;2663;53.588;10.010;2024-02-21T10:28:41;9.90;99.90
5280;DHT22;2663;53.588;10.010;2024-02-21T10:31:24;9.90;99.90
5280;DHT22;2663;53.588;10.010;2024-02-21T10:34:01;9.90;99.90
5280;DHT22;2663;53.588;10.010;2024-02-21T10:36:32;10.10;99.90
5280;DHT22;2663;53.588;10.010;2024-02-21T10:38:59;9.90;99.90
5280;DHT22;2663;53.588;10.010;2024-02-21T10:41:25;9.90;99.90
5280;DHT22;2663;53.588;10.010;2024-02-21T10:43:55;9.90;99.90
5280;DHT22;2663;53.588;10.010;2024-02-21T10:46:23;10.00;99.90
5280;DHT22;2663;53.588;10.010;2024-02-21T10:49:10;10.00;99.90
5280;DHT22;2663;53.588;10.010;2024-02-21T10:51:43;10.00;99.90
5280;DHT22;2663;53.588;10.010;2024-02-21T10:56:38;10.10;99.90
5280;DHT22;2663;53.588;10.010;2024-02-21T10:59:07;10.10;99.90
5280;DHT22;2663;53.588;10.010;2024-02-21T11:01:34;10.00;99.90
5280;DHT22;2663;53.588;10.010;2024-02-21T11:04:06;10.10;99.90
5280;DHT22;2663;53.588;10.010;2024-02-21T11:06:36;9.90;99.90
5280;DHT22;2663;53.588;10.010;2024-02-21T11:09:08;10.10;99.90
5280;DHT22;2663;53.588;10.010;2024-02-21T11:11:38;10.10;99.90
5280;DHT22;2663;53.588;10.010;2024-02-21T11:14:17;10.10;99.90
5280;DHT22;2663;53.588;10.010;2024-02-21T11:16:44;10.10;99.90
5280;DHT22;2663;53.588;10.010;2024-02-21T11:19:31;10.10;99.90
5280;DHT22;2663;53.588;10.010;2024-02-21T11:21:58;10.10;99.90
5280;DHT22;2663;53.588;10.010;2024-02-21T11:24:30;10.20;99.90
5280;DHT22;2663;53.588;10.010;2024-02-21T11:27:16;10.20;99.90
5280;DHT22;2663;53.588;10.010;2024-02-21T11:29:55;10.20;99.90
5280;DHT22;2663;53.588;10.010;2024-02-21T11:32:22;10.10;99.90
5280;DHT22;2663;53.588;10.010;2024-02-21T11:34:59;10.10;99.90
5280;DHT22;2663;53.588;10.010;2024-02-21T11:37:35;10.10;99.90
5280;DHT22;2663;53.588;10.010;2024-02-21T11:40:04;10.20;99.90
5280;DHT22;2663;53.588;10.010;2024-02-21T11:42:33;10.10;99.90
5280;DHT22;2663;53.588;10.010;2024-02-21T11:45:00;10.00;99.90
5280;DHT22;2663;53.588;10.010;2024-02-21T11:47:30;10.00;99.90
5280;DHT22;2663;53.588;10.010;2024-02-21T11:49:57;10.00;99.90
5280;DHT22;2663;53.588;10.010;2024-02-21T11:52:25;10.00;99.90
5280;DHT22;2663;53.588;10.010;2024-02-21T11:54:53;10.00;99.90
5280;DHT22;2663;53.588;10.010;2024-02-21T11:57:21;9.90;99.90
5280;DHT22;2663;53.588;10.010;2024-02-21T11:59:48;9.90;99.90
5280;DHT22;2663;53.588;10.010;2024-02-21T12:02:16;9.90;99.90
5280;DHT22;2663;53.588;10.010;2024-02-21T12:04:44;10.00;99.90
5280;DHT22;2663;53.588;10.010;2024-02-21T12:07:11;10.00;99.90
5280;DHT22;2663;53.588;10.010;2024-02-21T12:09:38;10.00;99.90
5280;DHT22;2663;53.588;10.010;2024-02-21T12:12:08;10.00;99.90
5280;DHT22;2663;53.588;10.010;2024-02-21T12:14:35;10.00;99.90
5280;DHT22;2663;53.588;10.010;2024-02-21T12:17:02;10.00;99.90
5280;DHT22;2663;53.588;10.010;2024-02-21T12:19:33;10.10;99.90
5280;DHT22;2663;53.588;10.010;2024-02-21T12:22:00;10.10;99.90
5280;DHT22;2663;53.588;10.010;2024-02-21T12:24:28;10.00;99.90
5280;DHT22;2663;53.588;10.010;2024-02-21T12:26:56;10.00;99.90
5280;DHT22;2663;53.588;10.010;2024-02-21T12:29:24;10.00;99.90
5280;DHT22;2663;53.588;10.010;2024-02-21T12:31:51;10.00;99.90
5280;DHT22;2663;53.588;10.010;2024-02-21T12:34:18;10.00;99.90
5280;DHT22;2663;53.588;10.010;2024-02-21T12:37:01;10.00;99.90
5280;DHT22;2663;53.588;10.010;2024-02-21T12:39:28;10.10;99.90
5280;DHT22;2663;53.588;10.010;2024-02-21T12:41:55;10.00;99.90
5280;DHT22;2663;53.588;10.010;2024-02-21T12:44:24;10.00;99.90
5280;DHT22;2663;53.588;10.010;2024-02-21T12:46:52;10.00;99.90
5280;DHT22;2663;53.588;10.010;2024-02-21T12:49:21;10.00;99.90
5280;DHT22;2663;53.588;10.010;2024-02-21T12:51:48;10.10;99.90
5280;DHT22;2663;53.588;10.010;2024-02-21T12:54:15;9.40;99.90
5280;DHT22;2663;53.588;10.010;2024-02-21T12:56:42;10.00;99.90
5280;DHT22;2663;53.588;10.010;2024-02-21T12:59:09;10.10;99.90
5280;DHT22;2663;53.588;10.010;2024-02-21T13:01:36;10.10;99.90
5280;DHT22;2663;53.588;10.010;2024-02-21T13:04:04;10.10;99.90
5280;DHT22;2663;53.588;10.010;2024-02-21T13:06:31;10.10;99.90
5280;DHT22;2663;53.588;10.010;2024-02-21T13:08:58;10.10;99.90
5280;DHT22;2663;53.588;10.010;2024-02-21T13:11:26;10.10;99.90
5280;DHT22;2663;53.588;10.010;2024-02-21T13:13:57;10.20;99.90
5280;DHT22;2663;53.588;10.010;2024-02-21T13:16:24;10.20;99.90
5280;DHT22;2663;53.588;10.010;2024-02-21T13:18:53;10.20;99.90
5280;DHT22;2663;53.588;10.010;2024-02-21T13:21:20;10.20;99.90
5280;DHT22;2663;53.588;10.010;2024-02-21T13:23:46;11.50;99.90
5280;DHT22;2663;53.588;10.010;2024-02-21T13:26:13;10.20;99.90
5280;DHT22;2663;53.588;10.010;2024-02-21T13:28:41;10.80;99.90
5280;DHT22;2663;53.588;10.010;2024-02-21T13:31:07;10.30;99.90
5280;DHT22;2663;53.588;10.010;2024-02-21T13:33:34;10.30;99.90
5280;DHT22;2663;53.588;10.010;2024-02-21T13:36:03;10.40;99.90
5280;DHT22;2663;53.588;10.010;2024-02-21T13:38:30;10.30;99.90
5280;DHT22;2663;53.588;10.010;2024-02-21T13:40:56;10.40;99.90
5280;DHT22;2663;53.588;10.010;2024-02-21T13:43:23;11.50;99.90
5280;DHT22;2663;53.588;10.010;2024-02-21T13:46:00;10.50;99.90
5280;DHT22;2663;53.588;10.010;2024-02-21T13:48:31;10.50;99.90
5280;DHT22;2663;53.588;10.010;2024-02-21T13:50:59;10.50;99.90
5280;DHT22;2663;53.588;10.010;2024-02-21T13:53:28;10.70;99.90
5280;DHT22;2663;53.588;10.010;2024-02-21T13:55:55;10.80;99.90
5280;DHT22;2663;53.588;10.010;2024-02-21T13:58:22;10.80;99.90
5280;DHT22;2663;53.588;10.010;2024-02-21T14:00:49;10.90;99.90
5280;DHT22;2663;53.588;10.010;2024-02-21T14:03:16;9.70;99.90
5280;DHT22;2663;53.588;10.010;2024-02-21T14:05:43;11.00;99.90
5280;DHT22;2663;53.588;10.010;2024-02-21T14:08:10;11.10;99.90
5280;DHT22;2663;53.588;10.010;2024-02-21T14:10:37;11.20;99.90
5280;DHT22;2663;53.588;10.010;2024-02-21T14:13:04;11.20;99.90
5280;DHT22;2663;53.588;10.010;2024-02-21T14:15:31;11.20;99.90
5280;DHT22;2663;53.588;10.010;2024-02-21T14:17:57;11.20;99.90
5280;DHT22;2663;53.588;10.010;2024-02-21T14:20:24;11.10;99.90
5280;DHT22;2663;53.588;10.010;2024-02-21T14:22:51;11.10;99.90
5280;DHT22;2663;53.588;10.010;2024-02-21T14:25:18;11.10;99.90
5280;DHT22;2663;53.588;10.010;2024-02-21T14:27:45;11.00;99.90
5280;DHT22;2663;53.588;10.010;2024-02-21T14:30:12;11.20;99.90
5280;DHT22;2663;53.588;10.010;2024-02-21T14:32:43;11.10;99.90
5280;DHT22;2663;53.588;10.010;2024-02-21T14:35:10;11.20;99.90
5280;DHT22;2663;53.588;10.010;2024-02-21T14:37:36;11.20;99.90
5280;DHT22;2663;53.588;10.010;2024-02-21T14:40:04;11.10;99.90
5280;DHT22;2663;53.588;10.010;2024-02-21T14:42:30;11.10;99.90
5280;DHT22;2663;53.588;10.010;2024-02-21T14:44:57;11.20;99.90
5280;DHT22;2663;53.588;10.010;2024-02-21T14:47:31;11.20;99.90
5280;DHT22;2663;53.588;10.010;2024-02-21T14:49:58;11.10;99.90
5280;DHT22;2663;53.588;10.010;2024-02-21T14:52:26;11.00;99.90
5280;DHT22;2663;53.588;10.010;2024-02-21T14:54:54;11.80;99.90
5280;DHT22;2663;53.588;10.010;2024-02-21T14:57:21;11.10;99.90
5280;DHT22;2663;53.588;10.010;2024-02-21T14:59:49;11.10;99.90
5280;DHT22;2663;53.588;10.010;2024-02-21T15:02:16;11.10;99.90
5280;DHT22;2663;53.588;10.010;2024-02-21T15:04:43;11.20;99.90
5280;DHT22;2663;53.588;10.010;2024-02-21T15:07:10;11.40;99.90
5280;DHT22;2663;53.588;10.010;2024-02-21T15:09:37;11.40;99.90
5280;DHT22;2663;53.588;10.010;2024-02-21T15:12:03;11.40;99.90
5280;DHT22;2663;53.588;10.010;2024-02-21T15:14:30;11.50;99.90
5280;DHT22;2663;53.588;10.010;2024-02-21T15:16:57;11.70;99.90
5280;DHT22;2663;53.588;10.010;2024-02-21T15:19:24;11.40;99.90
5280;DHT22;2663;53.588;10.010;2024-02-21T15:21:51;11.50;99.90
5280;DHT22;2663;53.588;10.010;2024-02-21T15:24:17;11.50;99.90
5280;DHT22;2663;53.588;10.010;2024-02-21T15:26:44;11.50;99.90
5280;DHT22;2663;53.588;10.010;2024-02-21T15:29:11;11.50;99.90
5280;DHT22;2663;53.588;10.010;2024-02-21T15:31:38;11.40;99.90
5280;DHT22;2663;53.588;10.010;2024-02-21T15:34:04;11.40;99.90
5280;DHT22;2663;53.588;10.010;2024-02-21T15:36:31;10.90;99.90
5280;DHT22;2663;53.588;10.010;2024-02-21T15:38:58;11.40;99.90
5280;DHT22;2663;53.588;10.010;2024-02-21T15:41:26;11.40;99.90
5280;DHT22;2663;53.588;10.010;2024-02-21T15:43:53;11.50;99.90
5280;DHT22;2663;53.588;10.010;2024-02-21T15:46:20;11.40;99.90
5280;DHT22;2663;53.588;10.010;2024-02-21T15:48:47;11.20;99.90
5280;DHT22;2663;53.588;10.010;2024-02-21T15:51:16;11.10;99.90
5280;DHT22;2663;53.588;10.010;2024-02-21T15:53:43;11.10;99.90
5280;DHT22;2663;53.588;10.010;2024-02-21T15:56:11;11.00;99.90
5280;DHT22;2663;53.588;10.010;2024-02-21T15:58:40;11.00;99.90
5280;DHT22;2663;53.588;10.010;2024-02-21T16:01:07;11.10;99.90
5280;DHT22;2663;53.588;10.010;2024-02-21T16:03:38;11.20;99.90